• Join FlightAware (Why Join?)
  • Login
  • US Flag 
07:18PM EDT


 

Airport Tracker/Info


-or-


 

Live Flight TrackerFlight Track Log ✈ TAM3376 ✈ 11-Sep-2013 ✈ SBGR / GRU - SBVT / VIX

Flight Track Log - Related Links

Times and Time Zones

All times are in EDT time to prevent confusion due to time zone crossing. See the TAM3376 flight status page for this flight to view local times or setup timezone preferences in your user account.

Time Position Orientation Groundspeed Altitude Reporting Facility
EDT Latitude Longitude Course Direction KTS MPH feet Rate Location/Type
02:47PM -23.1572 -45.9038 62° Northeast  Level Estimated
02:48PM -23.1112 -45.8097 62° Northeast  Level Estimated
02:49PM -23.0651 -45.7158 62° Northeast  Level Estimated
02:50PM -23.0190 -45.6218 62° Northeast  Level Estimated
02:51PM -22.9729 -45.5280 62° Northeast  Level Estimated
02:52PM -22.9266 -45.4342 62° Northeast  Level Estimated
02:53PM -22.8797 -45.3390 62° Northeast  Level Estimated
02:54PM -22.8326 -45.2439 62° Northeast  Level Estimated
02:55PM -22.7855 -45.1489 62° Northeast  Level Estimated
02:56PM -22.7384 -45.0540 62° Northeast  Level Estimated
02:57PM -22.6912 -44.9591 62° Northeast  Level Estimated
02:58PM -22.6439 -44.8642 62° Northeast  Level Estimated
02:59PM -22.5966 -44.7695 62° Northeast  Level Estimated
03:00PM -22.5492 -44.6748 62° Northeast  Level Estimated
03:01PM -22.5018 -44.5801 62° Northeast  Level Estimated
03:02PM -22.4543 -44.4856 61° Northeast  Level Estimated
03:03PM -22.4067 -44.3911 61° Northeast  Level Estimated
03:04PM -22.3591 -44.2966 61° Northeast  Level Estimated
03:05PM -22.3115 -44.2023 61° Northeast  Level Estimated
03:06PM -22.2638 -44.1079 61° Northeast  Level Estimated
03:07PM -22.2160 -44.0137 61° Northeast  Level Estimated
03:08PM -22.1682 -43.9195 61° Northeast  Level Estimated
03:09PM -22.1203 -43.8254 61° Northeast  Level Estimated
03:10PM -22.0724 -43.7314 61° Northeast  Level Estimated
03:11PM -22.0244 -43.6374 61° Northeast  Level Estimated
03:12PM -21.9764 -43.5434 61° Northeast  Level Estimated
03:13PM -21.9283 -43.4496 61° Northeast  Level Estimated
03:14PM -21.8802 -43.3558 61° Northeast  Level Estimated
03:15PM -21.8320 -43.2621 61° Northeast  Level Estimated
03:16PM -21.7837 -43.1684 61° Northeast  Level Estimated
03:17PM -21.7354 -43.0748 61° Northeast  Level Estimated
03:18PM -21.6871 -42.9812 61° Northeast  Level Estimated
03:19PM -21.6387 -42.8878 61° Northeast  Level Estimated
03:20PM -21.5902 -42.7943 61° Northeast  Level Estimated
03:21PM -21.5417 -42.7010 61° Northeast  Level Estimated
03:22PM -21.4932 -42.6077 61° Northeast  Level Estimated
03:23PM -21.4446 -42.5145 61° Northeast  Level Estimated
03:24PM -21.3959 -42.4213 61° Northeast  Level Estimated
03:25PM -21.3472 -42.3282 61° Northeast  Level Estimated
03:26PM -21.2984 -42.2351 61° Northeast  Level Estimated
03:27PM -21.2496 -42.1422 61° Northeast  Level Estimated
03:28PM -21.2008 -42.0492 61° Northeast  Level Estimated
03:29PM -21.1518 -41.9564 61° Northeast  Level Estimated
03:30PM -21.1029 -41.8636 61° Northeast  Level Estimated
03:31PM -21.0539 -41.7708 60° Northeast  Level Estimated
03:32PM -21.0048 -41.6782 60° Northeast  Level Estimated
03:33PM -20.9557 -41.5855 60° Northeast  Level Estimated
03:34PM -20.9065 -41.4930 60° Northeast  Level Estimated
03:35PM -20.8573 -41.4005 60° Northeast  Level Estimated
03:36PM -20.8080 -41.3080 60° Northeast  Level Estimated
03:37PM -20.7587 -41.2157 60° Northeast  Level Estimated
03:38PM -20.7093 -41.1234 60° Northeast  Level Estimated
03:39PM -20.6599 -41.0311 60° Northeast  Level Estimated
03:40PM -20.6105 -40.9389 60° Northeast  Level Estimated
03:41PM -20.5609 -40.8468 60° Northeast  Level Estimated
03:42PM -20.5114 -40.7547 60° Northeast  Level Estimated
03:43PM -20.4618 -40.6627 60° Northeast  Level Estimated
03:44PM -20.4121 -40.5708 60° Northeast  Level Estimated
03:45PM -20.3624 -40.4789 60° Northeast  Level Estimated
03:46PM -20.3127 -40.3870 60° Northeast  Level Estimated
03:47PM -20.2629 -40.2952 60° Northeast  Level Estimated
03:48PM -20.2581 -40.2864 60° Northeast  Level Estimated
03:49PM -20.2581 -40.2864 13° North  Level Estimated
03:50PM -20.2581 -40.2864 13° North  Level Estimated
03:51PM -20.2581 -40.2864 13° North  Level Estimated
03:52PM -20.2581 -40.2864 13° North  Level Estimated
03:53PM -20.2581 -40.2864 13° North  Level Estimated
03:54PM -20.2581 -40.2864 13° North  Level Estimated
03:55PM -20.2581 -40.2864 13° North  Level Estimated